sensor_id;sensor_type;location;lat;lon;timestamp;P1;durP1;ratioP1;P2;durP2;ratioP2
46889;SDS011;32625;51.080;16.970;2022-09-29T00:01:29;11.52;;;8.00;;
46889;SDS011;32625;51.080;16.970;2022-09-29T00:03:57;11.18;;;8.20;;
46889;SDS011;32625;51.080;16.970;2022-09-29T00:06:24;12.00;;;8.00;;
46889;SDS011;32625;51.080;16.970;2022-09-29T00:12:23;10.77;;;6.90;;
46889;SDS011;32625;51.080;16.970;2022-09-29T00:14:50;10.35;;;6.53;;
46889;SDS011;32625;51.080;16.970;2022-09-29T00:17:18;12.50;;;7.55;;
46889;SDS011;32625;51.080;16.970;2022-09-29T00:19:45;12.70;;;6.70;;
46889;SDS011;32625;51.080;16.970;2022-09-29T00:22:12;10.45;;;6.97;;
46889;SDS011;32625;51.080;16.970;2022-09-29T00:24:39;11.18;;;7.03;;
46889;SDS011;32625;51.080;16.970;2022-09-29T00:27:06;12.00;;;7.68;;
46889;SDS011;32625;51.080;16.970;2022-09-29T00:29:33;9.00;;;7.53;;
46889;SDS011;32625;51.080;16.970;2022-09-29T00:32:00;11.40;;;7.95;;
46889;SDS011;32625;51.080;16.970;2022-09-29T00:34:28;10.25;;;7.32;;
46889;SDS011;32625;51.080;16.970;2022-09-29T00:36:55;11.38;;;7.95;;
46889;SDS011;32625;51.080;16.970;2022-09-29T00:39:22;11.25;;;7.57;;
46889;SDS011;32625;51.080;16.970;2022-09-29T00:41:49;15.77;;;9.05;;
46889;SDS011;32625;51.080;16.970;2022-09-29T00:46:52;10.77;;;7.35;;
46889;SDS011;32625;51.080;16.970;2022-09-29T00:52:13;10.55;;;7.65;;
46889;SDS011;32625;51.080;16.970;2022-09-29T00:54:50;9.10;;;6.88;;
46889;SDS011;32625;51.080;16.970;2022-09-29T01:01:24;9.35;;;7.20;;
46889;SDS011;32625;51.080;16.970;2022-09-29T01:03:55;10.90;;;7.63;;
46889;SDS011;32625;51.080;16.970;2022-09-29T01:07:25;10.15;;;7.20;;
46889;SDS011;32625;51.080;16.970;2022-09-29T01:09:53;8.43;;;6.70;;
46889;SDS011;32625;51.080;16.970;2022-09-29T01:12:42;8.75;;;6.05;;
46889;SDS011;32625;51.080;16.970;2022-09-29T01:15:13;11.57;;;7.75;;
46889;SDS011;32625;51.080;16.970;2022-09-29T01:17:44;10.40;;;7.85;;
46889;SDS011;32625;51.080;16.970;2022-09-29T01:20:14;10.98;;;8.75;;
46889;SDS011;32625;51.080;16.970;2022-09-29T01:34:43;16.10;;;10.02;;
46889;SDS011;32625;51.080;16.970;2022-09-29T01:37:35;11.77;;;8.48;;
46889;SDS011;32625;51.080;16.970;2022-09-29T01:48:58;9.90;;;8.20;;
46889;SDS011;32625;51.080;16.970;2022-09-29T01:51:52;11.38;;;8.52;;
46889;SDS011;32625;51.080;16.970;2022-09-29T01:54:43;10.60;;;8.85;;
46889;SDS011;32625;51.080;16.970;2022-09-29T01:57:25;9.90;;;7.40;;
46889;SDS011;32625;51.080;16.970;2022-09-29T02:00:09;11.00;;;8.02;;
46889;SDS011;32625;51.080;16.970;2022-09-29T02:05:14;8.93;;;7.68;;
46889;SDS011;32625;51.080;16.970;2022-09-29T02:07:51;10.32;;;7.03;;
46889;SDS011;32625;51.080;16.970;2022-09-29T02:10:23;9.35;;;7.53;;
46889;SDS011;32625;51.080;16.970;2022-09-29T02:12:56;10.68;;;8.18;;
46889;SDS011;32625;51.080;16.970;2022-09-29T02:15:27;11.57;;;8.18;;
46889;SDS011;32625;51.080;16.970;2022-09-29T02:18:00;9.07;;;6.93;;
46889;SDS011;32625;51.080;16.970;2022-09-29T02:25:53;12.38;;;8.70;;
46889;SDS011;32625;51.080;16.970;2022-09-29T02:28:22;10.18;;;7.60;;
46889;SDS011;32625;51.080;16.970;2022-09-29T02:30:50;10.18;;;7.53;;
46889;SDS011;32625;51.080;16.970;2022-09-29T02:33:18;10.50;;;7.38;;
46889;SDS011;32625;51.080;16.970;2022-09-29T02:35:55;10.27;;;7.45;;
46889;SDS011;32625;51.080;16.970;2022-09-29T02:41:06;10.65;;;7.18;;
46889;SDS011;32625;51.080;16.970;2022-09-29T02:46:57;13.85;;;7.43;;
46889;SDS011;32625;51.080;16.970;2022-09-29T02:49:34;11.52;;;7.72;;
46889;SDS011;32625;51.080;16.970;2022-09-29T02:54:54;13.05;;;7.72;;
46889;SDS011;32625;51.080;16.970;2022-09-29T03:00:19;10.40;;;6.93;;
46889;SDS011;32625;51.080;16.970;2022-09-29T03:02:47;9.68;;;7.03;;
46889;SDS011;32625;51.080;16.970;2022-09-29T03:05:15;10.20;;;7.55;;
46889;SDS011;32625;51.080;16.970;2022-09-29T03:07:45;12.20;;;7.40;;
46889;SDS011;32625;51.080;16.970;2022-09-29T03:10:13;10.25;;;7.40;;
46889;SDS011;32625;51.080;16.970;2022-09-29T03:12:41;11.77;;;7.70;;
46889;SDS011;32625;51.080;16.970;2022-09-29T03:15:09;10.43;;;7.65;;
46889;SDS011;32625;51.080;16.970;2022-09-29T03:17:39;10.90;;;7.32;;
46889;SDS011;32625;51.080;16.970;2022-09-29T03:20:10;13.55;;;11.25;;
46889;SDS011;32625;51.080;16.970;2022-09-29T03:22:37;12.32;;;10.68;;
46889;SDS011;32625;51.080;16.970;2022-09-29T03:25:10;12.57;;;10.10;;
46889;SDS011;32625;51.080;16.970;2022-09-29T03:27:38;12.35;;;10.38;;
46889;SDS011;32625;51.080;16.970;2022-09-29T03:30:05;11.63;;;9.27;;
46889;SDS011;32625;51.080;16.970;2022-09-29T03:32:33;13.02;;;7.78;;
46889;SDS011;32625;51.080;16.970;2022-09-29T03:35:00;11.05;;;7.95;;
46889;SDS011;32625;51.080;16.970;2022-09-29T03:37:27;11.38;;;8.27;;
46889;SDS011;32625;51.080;16.970;2022-09-29T03:39:55;9.68;;;7.72;;
46889;SDS011;32625;51.080;16.970;2022-09-29T03:42:22;9.45;;;6.95;;
46889;SDS011;32625;51.080;16.970;2022-09-29T03:44:50;13.52;;;9.75;;
46889;SDS011;32625;51.080;16.970;2022-09-29T03:47:17;10.80;;;8.80;;
46889;SDS011;32625;51.080;16.970;2022-09-29T03:49:44;12.48;;;9.30;;
46889;SDS011;32625;51.080;16.970;2022-09-29T03:52:11;11.60;;;8.02;;
46889;SDS011;32625;51.080;16.970;2022-09-29T03:54:38;11.13;;;8.27;;
46889;SDS011;32625;51.080;16.970;2022-09-29T03:57:06;11.65;;;7.85;;
46889;SDS011;32625;51.080;16.970;2022-09-29T03:59:33;12.27;;;8.40;;
46889;SDS011;32625;51.080;16.970;2022-09-29T04:02:00;10.68;;;7.93;;
46889;SDS011;32625;51.080;16.970;2022-09-29T04:04:27;11.13;;;7.82;;
46889;SDS011;32625;51.080;16.970;2022-09-29T04:06:54;9.52;;;6.95;;
46889;SDS011;32625;51.080;16.970;2022-09-29T04:09:21;9.77;;;7.70;;
46889;SDS011;32625;51.080;16.970;2022-09-29T04:11:51;11.15;;;7.60;;
46889;SDS011;32625;51.080;16.970;2022-09-29T04:14:18;10.20;;;8.07;;
46889;SDS011;32625;51.080;16.970;2022-09-29T04:16:45;12.77;;;7.68;;
46889;SDS011;32625;51.080;16.970;2022-09-29T04:19:13;9.20;;;7.25;;
46889;SDS011;32625;51.080;16.970;2022-09-29T04:21:40;11.27;;;7.22;;
46889;SDS011;32625;51.080;16.970;2022-09-29T04:24:07;10.32;;;7.18;;
46889;SDS011;32625;51.080;16.970;2022-09-29T04:26:34;12.07;;;7.35;;
46889;SDS011;32625;51.080;16.970;2022-09-29T04:29:02;10.05;;;7.97;;
46889;SDS011;32625;51.080;16.970;2022-09-29T04:31:29;11.07;;;8.38;;
46889;SDS011;32625;51.080;16.970;2022-09-29T04:33:56;11.93;;;8.35;;
46889;SDS011;32625;51.080;16.970;2022-09-29T04:36:23;16.10;;;9.05;;
46889;SDS011;32625;51.080;16.970;2022-09-29T04:38:50;11.23;;;8.27;;
46889;SDS011;32625;51.080;16.970;2022-09-29T04:41:18;9.60;;;7.38;;
46889;SDS011;32625;51.080;16.970;2022-09-29T04:43:45;10.52;;;7.93;;
46889;SDS011;32625;51.080;16.970;2022-09-29T04:46:13;8.85;;;7.00;;
46889;SDS011;32625;51.080;16.970;2022-09-29T04:48:42;10.75;;;8.70;;
46889;SDS011;32625;51.080;16.970;2022-09-29T04:51:09;13.95;;;8.23;;
46889;SDS011;32625;51.080;16.970;2022-09-29T04:53:36;11.27;;;8.35;;
46889;SDS011;32625;51.080;16.970;2022-09-29T04:56:04;14.60;;;8.68;;
46889;SDS011;32625;51.080;16.970;2022-09-29T04:58:32;12.90;;;8.65;;
46889;SDS011;32625;51.080;16.970;2022-09-29T05:01:03;12.90;;;9.30;;
46889;SDS011;32625;51.080;16.970;2022-09-29T05:03:32;15.57;;;10.32;;
46889;SDS011;32625;51.080;16.970;2022-09-29T05:05:59;17.83;;;10.15;;
46889;SDS011;32625;51.080;16.970;2022-09-29T05:08:26;17.65;;;10.48;;
46889;SDS011;32625;51.080;16.970;2022-09-29T05:10:53;20.02;;;10.60;;
46889;SDS011;32625;51.080;16.970;2022-09-29T05:13:22;15.43;;;10.07;;
46889;SDS011;32625;51.080;16.970;2022-09-29T05:15:53;13.77;;;9.48;;
46889;SDS011;32625;51.080;16.970;2022-09-29T05:18:21;16.33;;;9.95;;
46889;SDS011;32625;51.080;16.970;2022-09-29T05:21:15;13.70;;;9.50;;
46889;SDS011;32625;51.080;16.970;2022-09-29T05:26:47;10.90;;;8.20;;
46889;SDS011;32625;51.080;16.970;2022-09-29T05:29:14;9.85;;;8.15;;
46889;SDS011;32625;51.080;16.970;2022-09-29T05:31:44;13.15;;;8.90;;
46889;SDS011;32625;51.080;16.970;2022-09-29T05:34:11;15.63;;;8.98;;
46889;SDS011;32625;51.080;16.970;2022-09-29T05:36:38;14.00;;;9.00;;
46889;SDS011;32625;51.080;16.970;2022-09-29T05:39:06;12.02;;;9.63;;
46889;SDS011;32625;51.080;16.970;2022-09-29T05:41:33;13.70;;;9.38;;
46889;SDS011;32625;51.080;16.970;2022-09-29T05:44:00;12.50;;;9.18;;
46889;SDS011;32625;51.080;16.970;2022-09-29T05:46:28;18.60;;;10.48;;
46889;SDS011;32625;51.080;16.970;2022-09-29T05:48:55;13.25;;;9.52;;
46889;SDS011;32625;51.080;16.970;2022-09-29T05:51:25;14.65;;;9.98;;
46889;SDS011;32625;51.080;16.970;2022-09-29T05:53:53;16.70;;;10.52;;
46889;SDS011;32625;51.080;16.970;2022-09-29T05:56:21;14.48;;;10.50;;
46889;SDS011;32625;51.080;16.970;2022-09-29T05:58:51;15.38;;;9.82;;
46889;SDS011;32625;51.080;16.970;2022-09-29T06:01:20;15.65;;;11.13;;
46889;SDS011;32625;51.080;16.970;2022-09-29T06:03:52;17.08;;;10.05;;
46889;SDS011;32625;51.080;16.970;2022-09-29T06:06:22;17.95;;;11.95;;
46889;SDS011;32625;51.080;16.970;2022-09-29T06:08:52;14.20;;;9.98;;
46889;SDS011;32625;51.080;16.970;2022-09-29T06:11:21;15.23;;;11.30;;
46889;SDS011;32625;51.080;16.970;2022-09-29T06:13:50;17.23;;;11.00;;
46889;SDS011;32625;51.080;16.970;2022-09-29T06:16:19;16.85;;;10.75;;
46889;SDS011;32625;51.080;16.970;2022-09-29T06:18:48;18.98;;;11.20;;
46889;SDS011;32625;51.080;16.970;2022-09-29T06:21:16;18.30;;;11.30;;
46889;SDS011;32625;51.080;16.970;2022-09-29T06:23:45;17.75;;;11.27;;
46889;SDS011;32625;51.080;16.970;2022-09-29T06:26:13;20.38;;;11.50;;
46889;SDS011;32625;51.080;16.970;2022-09-29T06:28:51;21.30;;;11.25;;
46889;SDS011;32625;51.080;16.970;2022-09-29T06:31:20;19.17;;;10.75;;
46889;SDS011;32625;51.080;16.970;2022-09-29T06:33:48;16.88;;;12.10;;
46889;SDS011;32625;51.080;16.970;2022-09-29T06:39:08;15.23;;;10.05;;
46889;SDS011;32625;51.080;16.970;2022-09-29T06:41:38;13.50;;;9.65;;
46889;SDS011;32625;51.080;16.970;2022-09-29T06:44:07;17.08;;;10.55;;
46889;SDS011;32625;51.080;16.970;2022-09-29T06:46:34;14.82;;;9.90;;
46889;SDS011;32625;51.080;16.970;2022-09-29T06:49:01;14.27;;;10.50;;
46889;SDS011;32625;51.080;16.970;2022-09-29T06:51:28;13.60;;;10.27;;
46889;SDS011;32625;51.080;16.970;2022-09-29T06:54:15;11.30;;;9.52;;
46889;SDS011;32625;51.080;16.970;2022-09-29T06:56:47;16.07;;;9.93;;
46889;SDS011;32625;51.080;16.970;2022-09-29T06:59:15;13.45;;;10.30;;
46889;SDS011;32625;51.080;16.970;2022-09-29T07:01:43;11.77;;;9.20;;
46889;SDS011;32625;51.080;16.970;2022-09-29T07:04:17;15.15;;;10.70;;
46889;SDS011;32625;51.080;16.970;2022-09-29T07:06:47;13.70;;;10.63;;
46889;SDS011;32625;51.080;16.970;2022-09-29T07:09:14;15.48;;;11.00;;
46889;SDS011;32625;51.080;16.970;2022-09-29T07:11:43;16.70;;;9.80;;
46889;SDS011;32625;51.080;16.970;2022-09-29T07:14:12;12.82;;;10.32;;
46889;SDS011;32625;51.080;16.970;2022-09-29T07:16:44;12.45;;;10.40;;
46889;SDS011;32625;51.080;16.970;2022-09-29T07:19:15;15.98;;;11.88;;
46889;SDS011;32625;51.080;16.970;2022-09-29T07:21:44;18.38;;;10.95;;
46889;SDS011;32625;51.080;16.970;2022-09-29T07:24:12;14.38;;;10.32;;
46889;SDS011;32625;51.080;16.970;2022-09-29T07:26:39;14.35;;;10.27;;
46889;SDS011;32625;51.080;16.970;2022-09-29T07:29:07;16.52;;;10.63;;
46889;SDS011;32625;51.080;16.970;2022-09-29T07:31:41;13.30;;;9.93;;
46889;SDS011;32625;51.080;16.970;2022-09-29T07:34:18;15.35;;;11.43;;
46889;SDS011;32625;51.080;16.970;2022-09-29T07:36:46;14.43;;;8.95;;
46889;SDS011;32625;51.080;16.970;2022-09-29T07:39:13;12.98;;;9.73;;
46889;SDS011;32625;51.080;16.970;2022-09-29T07:41:41;12.45;;;8.90;;
46889;SDS011;32625;51.080;16.970;2022-09-29T07:44:08;10.88;;;8.82;;
46889;SDS011;32625;51.080;16.970;2022-09-29T07:46:35;11.00;;;8.98;;
46889;SDS011;32625;51.080;16.970;2022-09-29T07:49:02;13.00;;;7.53;;
46889;SDS011;32625;51.080;16.970;2022-09-29T07:51:29;13.38;;;8.77;;
46889;SDS011;32625;51.080;16.970;2022-09-29T07:54:01;9.75;;;8.10;;
46889;SDS011;32625;51.080;16.970;2022-09-29T07:56:30;9.95;;;8.60;;
46889;SDS011;32625;51.080;16.970;2022-09-29T07:58:58;12.00;;;8.65;;
46889;SDS011;32625;51.080;16.970;2022-09-29T08:01:27;13.10;;;7.25;;
46889;SDS011;32625;51.080;16.970;2022-09-29T08:03:55;10.25;;;8.38;;
46889;SDS011;32625;51.080;16.970;2022-09-29T08:06:25;10.80;;;6.82;;
46889;SDS011;32625;51.080;16.970;2022-09-29T08:08:52;7.80;;;6.25;;
46889;SDS011;32625;51.080;16.970;2022-09-29T08:11:30;7.43;;;6.43;;
46889;SDS011;32625;51.080;16.970;2022-09-29T08:14:04;9.68;;;6.75;;
46889;SDS011;32625;51.080;16.970;2022-09-29T08:16:35;7.38;;;5.53;;
46889;SDS011;32625;51.080;16.970;2022-09-29T08:19:04;5.55;;;4.95;;
46889;SDS011;32625;51.080;16.970;2022-09-29T08:21:31;5.20;;;4.55;;
46889;SDS011;32625;51.080;16.970;2022-09-29T08:24:02;4.88;;;4.38;;
46889;SDS011;32625;51.080;16.970;2022-09-29T08:26:31;5.22;;;3.90;;
46889;SDS011;32625;51.080;16.970;2022-09-29T08:29:10;3.45;;;3.15;;
46889;SDS011;32625;51.080;16.970;2022-09-29T08:31:42;4.72;;;4.20;;
46889;SDS011;32625;51.080;16.970;2022-09-29T08:34:11;6.00;;;4.20;;
46889;SDS011;32625;51.080;16.970;2022-09-29T08:36:39;5.22;;;4.00;;
46889;SDS011;32625;51.080;16.970;2022-09-29T08:39:08;4.82;;;4.07;;
46889;SDS011;32625;51.080;16.970;2022-09-29T08:44:36;4.50;;;4.10;;
46889;SDS011;32625;51.080;16.970;2022-09-29T08:47:19;4.80;;;3.63;;
46889;SDS011;32625;51.080;16.970;2022-09-29T08:50:13;7.60;;;3.90;;
46889;SDS011;32625;51.080;16.970;2022-09-29T08:52:55;6.57;;;4.25;;
46889;SDS011;32625;51.080;16.970;2022-09-29T08:55:33;3.60;;;3.28;;
46889;SDS011;32625;51.080;16.970;2022-09-29T08:58:13;6.60;;;3.58;;
46889;SDS011;32625;51.080;16.970;2022-09-29T09:00:45;4.78;;;4.25;;
46889;SDS011;32625;51.080;16.970;2022-09-29T09:03:39;8.05;;;4.00;;
46889;SDS011;32625;51.080;16.970;2022-09-29T09:25:47;3.38;;;2.47;;
46889;SDS011;32625;51.080;16.970;2022-09-29T09:28:20;2.50;;;2.30;;
46889;SDS011;32625;51.080;16.970;2022-09-29T09:33:42;4.53;;;3.05;;
46889;SDS011;32625;51.080;16.970;2022-09-29T09:39:12;3.30;;;2.95;;
46889;SDS011;32625;51.080;16.970;2022-09-29T09:42:19;5.03;;;3.30;;
46889;SDS011;32625;51.080;16.970;2022-09-29T09:44:55;4.70;;;2.55;;
46889;SDS011;32625;51.080;16.970;2022-09-29T09:47:36;4.50;;;2.90;;
46889;SDS011;32625;51.080;16.970;2022-09-29T09:50:12;3.83;;;3.05;;
46889;SDS011;32625;51.080;16.970;2022-09-29T09:55:20;3.35;;;2.83;;
46889;SDS011;32625;51.080;16.970;2022-09-29T10:01:22;3.28;;;2.60;;
46889;SDS011;32625;51.080;16.970;2022-09-29T10:03:49;5.10;;;2.80;;
46889;SDS011;32625;51.080;16.970;2022-09-29T10:06:17;3.20;;;2.90;;
46889;SDS011;32625;51.080;16.970;2022-09-29T10:08:45;3.35;;;3.05;;
46889;SDS011;32625;51.080;16.970;2022-09-29T10:11:23;4.35;;;2.63;;
46889;SDS011;32625;51.080;16.970;2022-09-29T10:14:01;5.80;;;3.00;;
46889;SDS011;32625;51.080;16.970;2022-09-29T10:16:44;4.47;;;2.70;;
46889;SDS011;32625;51.080;16.970;2022-09-29T10:19:22;5.60;;;3.05;;
46889;SDS011;32625;51.080;16.970;2022-09-29T10:22:13;6.05;;;2.65;;
46889;SDS011;32625;51.080;16.970;2022-09-29T10:24:40;4.30;;;3.20;;
46889;SDS011;32625;51.080;16.970;2022-09-29T10:27:08;3.60;;;2.58;;
46889;SDS011;32625;51.080;16.970;2022-09-29T10:29:37;3.50;;;2.83;;
46889;SDS011;32625;51.080;16.970;2022-09-29T10:32:21;3.75;;;3.00;;
46889;SDS011;32625;51.080;16.970;2022-09-29T10:37:45;3.63;;;2.60;;
46889;SDS011;32625;51.080;16.970;2022-09-29T10:40:17;5.38;;;3.40;;
46889;SDS011;32625;51.080;16.970;2022-09-29T10:42:49;3.75;;;3.10;;
46889;SDS011;32625;51.080;16.970;2022-09-29T10:45:18;3.35;;;3.05;;
46889;SDS011;32625;51.080;16.970;2022-09-29T10:50:31;4.57;;;3.05;;
46889;SDS011;32625;51.080;16.970;2022-09-29T10:53:16;2.88;;;2.58;;
46889;SDS011;32625;51.080;16.970;2022-09-29T10:56:05;3.75;;;2.90;;
46889;SDS011;32625;51.080;16.970;2022-09-29T10:58:43;2.72;;;2.50;;
46889;SDS011;32625;51.080;16.970;2022-09-29T11:01:30;3.58;;;3.05;;
46889;SDS011;32625;51.080;16.970;2022-09-29T11:04:01;3.20;;;2.55;;
46889;SDS011;32625;51.080;16.970;2022-09-29T11:06:36;3.22;;;2.83;;
46889;SDS011;32625;51.080;16.970;2022-09-29T11:11:51;5.82;;;2.83;;
46889;SDS011;32625;51.080;16.970;2022-09-29T11:16:58;5.00;;;3.50;;
46889;SDS011;32625;51.080;16.970;2022-09-29T11:19:30;4.13;;;3.17;;
46889;SDS011;32625;51.080;16.970;2022-09-29T11:42:33;3.30;;;3.00;;
46889;SDS011;32625;51.080;16.970;2022-09-29T11:45:10;4.00;;;2.40;;
46889;SDS011;32625;51.080;16.970;2022-09-29T12:01:23;2.67;;;2.45;;
46889;SDS011;32625;51.080;16.970;2022-09-29T12:06:41;3.88;;;2.78;;
46889;SDS011;32625;51.080;16.970;2022-09-29T12:09:39;2.85;;;2.50;;
46889;SDS011;32625;51.080;16.970;2022-09-29T12:12:27;4.00;;;2.53;;
46889;SDS011;32625;51.080;16.970;2022-09-29T12:15:15;3.53;;;2.67;;
46889;SDS011;32625;51.080;16.970;2022-09-29T12:18:09;4.32;;;2.45;;
46889;SDS011;32625;51.080;16.970;2022-09-29T12:23:13;4.00;;;2.47;;
46889;SDS011;32625;51.080;16.970;2022-09-29T12:25:51;4.10;;;2.97;;
46889;SDS011;32625;51.080;16.970;2022-09-29T12:28:27;4.43;;;2.38;;
46889;SDS011;32625;51.080;16.970;2022-09-29T12:31:10;2.70;;;2.33;;
46889;SDS011;32625;51.080;16.970;2022-09-29T12:33:45;2.88;;;2.45;;
46889;SDS011;32625;51.080;16.970;2022-09-29T12:36:19;3.67;;;2.10;;
46889;SDS011;32625;51.080;16.970;2022-09-29T12:39:12;2.50;;;2.28;;
46889;SDS011;32625;51.080;16.970;2022-09-29T12:41:43;3.80;;;2.55;;
46889;SDS011;32625;51.080;16.970;2022-09-29T12:44:19;2.45;;;2.13;;
46889;SDS011;32625;51.080;16.970;2022-09-29T12:46:58;3.55;;;2.10;;
46889;SDS011;32625;51.080;16.970;2022-09-29T12:49:33;2.15;;;1.90;;
46889;SDS011;32625;51.080;16.970;2022-09-29T12:52:24;3.50;;;2.22;;
46889;SDS011;32625;51.080;16.970;2022-09-29T12:54:56;3.22;;;2.30;;
46889;SDS011;32625;51.080;16.970;2022-09-29T12:57:35;4.03;;;2.15;;
46889;SDS011;32625;51.080;16.970;2022-09-29T13:00:13;3.95;;;2.20;;
46889;SDS011;32625;51.080;16.970;2022-09-29T13:27:43;2.05;;;1.88;;
46889;SDS011;32625;51.080;16.970;2022-09-29T13:30:18;2.65;;;2.05;;
46889;SDS011;32625;51.080;16.970;2022-09-29T13:32:49;3.03;;;2.50;;
46889;SDS011;32625;51.080;16.970;2022-09-29T13:35:21;4.10;;;2.55;;
46889;SDS011;32625;51.080;16.970;2022-09-29T13:38:00;3.08;;;2.55;;
46889;SDS011;32625;51.080;16.970;2022-09-29T13:40:31;4.13;;;2.70;;
46889;SDS011;32625;51.080;16.970;2022-09-29T13:42:59;5.38;;;3.05;;
46889;SDS011;32625;51.080;16.970;2022-09-29T13:48:49;3.78;;;2.33;;
46889;SDS011;32625;51.080;16.970;2022-09-29T13:50:58;3.15;;;2.13;;
46889;SDS011;32625;51.080;16.970;2022-09-29T13:54:12;2.42;;;2.22;;
46889;SDS011;32625;51.080;16.970;2022-09-29T13:56:58;4.00;;;2.30;;
46889;SDS011;32625;51.080;16.970;2022-09-29T13:59:39;2.22;;;2.03;;
46889;SDS011;32625;51.080;16.970;2022-09-29T14:05:02;3.15;;;2.10;;
46889;SDS011;32625;51.080;16.970;2022-09-29T14:12:59;3.65;;;2.90;;
46889;SDS011;32625;51.080;16.970;2022-09-29T14:15:38;2.30;;;2.00;;
46889;SDS011;32625;51.080;16.970;2022-09-29T14:18:18;4.43;;;2.30;;
46889;SDS011;32625;51.080;16.970;2022-09-29T14:20:59;2.78;;;2.30;;
46889;SDS011;32625;51.080;16.970;2022-09-29T14:29:17;3.92;;;2.15;;
46889;SDS011;32625;51.080;16.970;2022-09-29T14:31:50;3.17;;;2.03;;
46889;SDS011;32625;51.080;16.970;2022-09-29T14:34:21;4.65;;;2.13;;
46889;SDS011;32625;51.080;16.970;2022-09-29T14:36:52;2.22;;;2.03;;
46889;SDS011;32625;51.080;16.970;2022-09-29T14:39:21;2.97;;;1.77;;
46889;SDS011;32625;51.080;16.970;2022-09-29T14:41:52;5.63;;;1.88;;
46889;SDS011;32625;51.080;16.970;2022-09-29T14:44:30;2.10;;;1.90;;
46889;SDS011;32625;51.080;16.970;2022-09-29T14:47:38;2.15;;;1.92;;
46889;SDS011;32625;51.080;16.970;2022-09-29T14:54:02;4.00;;;2.08;;
46889;SDS011;32625;51.080;16.970;2022-09-29T15:01:35;4.03;;;1.92;;
46889;SDS011;32625;51.080;16.970;2022-09-29T15:04:13;3.28;;;2.35;;
46889;SDS011;32625;51.080;16.970;2022-09-29T15:06:45;2.92;;;1.88;;
46889;SDS011;32625;51.080;16.970;2022-09-29T15:11:50;2.78;;;2.10;;
46889;SDS011;32625;51.080;16.970;2022-09-29T15:23:11;3.45;;;2.30;;
46889;SDS011;32625;51.080;16.970;2022-09-29T15:25:47;3.08;;;2.40;;
46889;SDS011;32625;51.080;16.970;2022-09-29T15:28:20;3.55;;;2.88;;
46889;SDS011;32625;51.080;16.970;2022-09-29T15:30:59;4.50;;;2.10;;
46889;SDS011;32625;51.080;16.970;2022-09-29T15:33:30;3.40;;;2.63;;
46889;SDS011;32625;51.080;16.970;2022-09-29T15:36:02;4.57;;;2.90;;
46889;SDS011;32625;51.080;16.970;2022-09-29T15:38:33;6.95;;;2.92;;
46889;SDS011;32625;51.080;16.970;2022-09-29T15:43:39;5.57;;;2.78;;
46889;SDS011;32625;51.080;16.970;2022-09-29T15:46:18;4.22;;;3.20;;
46889;SDS011;32625;51.080;16.970;2022-09-29T15:51:30;3.45;;;2.72;;
46889;SDS011;32625;51.080;16.970;2022-09-29T15:53:57;3.58;;;3.00;;
46889;SDS011;32625;51.080;16.970;2022-09-29T15:56:26;3.80;;;3.13;;
46889;SDS011;32625;51.080;16.970;2022-09-29T15:58:57;7.53;;;2.78;;
46889;SDS011;32625;51.080;16.970;2022-09-29T16:01:24;7.55;;;2.53;;
46889;SDS011;32625;51.080;16.970;2022-09-29T16:03:55;2.90;;;2.47;;
46889;SDS011;32625;51.080;16.970;2022-09-29T16:09:03;7.03;;;2.47;;
46889;SDS011;32625;51.080;16.970;2022-09-29T16:11:34;2.60;;;2.20;;
46889;SDS011;32625;51.080;16.970;2022-09-29T16:16:44;3.47;;;2.67;;
46889;SDS011;32625;51.080;16.970;2022-09-29T16:19:17;7.80;;;3.03;;
46889;SDS011;32625;51.080;16.970;2022-09-29T16:21:53;5.38;;;3.30;;
46889;SDS011;32625;51.080;16.970;2022-09-29T16:24:26;3.40;;;2.63;;
46889;SDS011;32625;51.080;16.970;2022-09-29T16:26:56;4.10;;;2.85;;
46889;SDS011;32625;51.080;16.970;2022-09-29T16:29:31;4.13;;;3.28;;
46889;SDS011;32625;51.080;16.970;2022-09-29T16:40:52;27.80;;;17.35;;
46889;SDS011;32625;51.080;16.970;2022-09-29T16:43:26;31.95;;;22.02;;
46889;SDS011;32625;51.080;16.970;2022-09-29T16:48:25;24.98;;;18.08;;
46889;SDS011;32625;51.080;16.970;2022-09-29T16:50:56;25.30;;;16.65;;
46889;SDS011;32625;51.080;16.970;2022-09-29T16:53:33;16.88;;;12.30;;
46889;SDS011;32625;51.080;16.970;2022-09-29T16:56:03;18.23;;;11.90;;
46889;SDS011;32625;51.080;16.970;2022-09-29T16:58:35;14.77;;;10.85;;
46889;SDS011;32625;51.080;16.970;2022-09-29T17:01:02;13.73;;;10.30;;
46889;SDS011;32625;51.080;16.970;2022-09-29T17:03:30;14.07;;;9.82;;
46889;SDS011;32625;51.080;16.970;2022-09-29T17:06:00;16.30;;;9.30;;
46889;SDS011;32625;51.080;16.970;2022-09-29T17:08:29;14.00;;;9.20;;
46889;SDS011;32625;51.080;16.970;2022-09-29T17:11:00;14.88;;;9.43;;
46889;SDS011;32625;51.080;16.970;2022-09-29T17:13:29;14.80;;;9.98;;
46889;SDS011;32625;51.080;16.970;2022-09-29T17:16:00;12.70;;;8.30;;
46889;SDS011;32625;51.080;16.970;2022-09-29T17:18:31;14.75;;;8.02;;
46889;SDS011;32625;51.080;16.970;2022-09-29T17:20:58;13.10;;;7.68;;
46889;SDS011;32625;51.080;16.970;2022-09-29T17:23:26;10.65;;;6.90;;
46889;SDS011;32625;51.080;16.970;2022-09-29T17:25:54;11.82;;;7.70;;
46889;SDS011;32625;51.080;16.970;2022-09-29T17:28:41;12.80;;;7.57;;
46889;SDS011;32625;51.080;16.970;2022-09-29T17:31:09;9.93;;;7.35;;
46889;SDS011;32625;51.080;16.970;2022-09-29T17:33:38;13.68;;;7.85;;
46889;SDS011;32625;51.080;16.970;2022-09-29T17:36:07;13.43;;;7.63;;
46889;SDS011;32625;51.080;16.970;2022-09-29T17:38:40;10.43;;;6.75;;
46889;SDS011;32625;51.080;16.970;2022-09-29T17:41:08;13.60;;;6.75;;
46889;SDS011;32625;51.080;16.970;2022-09-29T17:43:41;13.65;;;8.13;;
46889;SDS011;32625;51.080;16.970;2022-09-29T17:46:15;15.93;;;10.85;;
46889;SDS011;32625;51.080;16.970;2022-09-29T17:48:42;26.25;;;16.65;;
46889;SDS011;32625;51.080;16.970;2022-09-29T17:51:13;26.08;;;17.63;;
46889;SDS011;32625;51.080;16.970;2022-09-29T17:53:44;24.00;;;15.52;;
46889;SDS011;32625;51.080;16.970;2022-09-29T17:56:18;15.98;;;11.00;;
46889;SDS011;32625;51.080;16.970;2022-09-29T17:58:48;14.65;;;8.77;;
46889;SDS011;32625;51.080;16.970;2022-09-29T18:01:16;12.90;;;7.72;;
46889;SDS011;32625;51.080;16.970;2022-09-29T18:03:46;12.82;;;8.07;;
46889;SDS011;32625;51.080;16.970;2022-09-29T18:06:17;10.82;;;7.53;;
46889;SDS011;32625;51.080;16.970;2022-09-29T18:08:47;13.15;;;7.45;;
46889;SDS011;32625;51.080;16.970;2022-09-29T18:11:21;11.10;;;7.72;;
46889;SDS011;32625;51.080;16.970;2022-09-29T18:13:50;9.75;;;6.50;;
46889;SDS011;32625;51.080;16.970;2022-09-29T18:16:19;12.55;;;8.10;;
46889;SDS011;32625;51.080;16.970;2022-09-29T18:18:48;13.63;;;8.23;;
46889;SDS011;32625;51.080;16.970;2022-09-29T18:21:23;14.15;;;9.45;;
46889;SDS011;32625;51.080;16.970;2022-09-29T18:23:52;19.45;;;10.70;;
46889;SDS011;32625;51.080;16.970;2022-09-29T18:26:19;22.70;;;11.75;;
46889;SDS011;32625;51.080;16.970;2022-09-29T18:28:46;15.18;;;10.25;;
46889;SDS011;32625;51.080;16.970;2022-09-29T18:31:19;14.85;;;10.73;;
46889;SDS011;32625;51.080;16.970;2022-09-29T18:33:54;15.57;;;10.40;;
46889;SDS011;32625;51.080;16.970;2022-09-29T18:36:36;14.52;;;9.70;;
46889;SDS011;32625;51.080;16.970;2022-09-29T18:39:04;15.88;;;10.63;;
46889;SDS011;32625;51.080;16.970;2022-09-29T18:41:31;15.20;;;9.57;;
46889;SDS011;32625;51.080;16.970;2022-09-29T18:43:59;14.75;;;8.82;;